Time,TemperatureF,DewpointF,PressureIn,WindDirection,WindDirectionDegrees,WindSpeedMPH,WindSpeedGustMPH,Humidity,HourlyPrecipIn,Conditions,Clouds,dailyrainin,SoftwareType,DateUTC
2013-09-24 00:01:00,39.6,38.3,30.12,East,86,0.0,0.0,95,0.00,CLR,,0.00,WeatherDisplay:10.37,2013-09-24 04:01:00,
2013-09-24 00:02:00,39.7,38.4,30.12,East,86,0.0,0.0,95,0.00,CLR,,0.00,WeatherDisplay:10.37,2013-09-24 04:02:00,
2013-09-24 00:04:00,39.6,38.3,30.12,East,86,0.0,0.0,95,0.00,CLR,,0.00,WeatherDisplay:10.37,2013-09-24 04:04:00,
2013-09-24 00:09:00,39.6,38.3,30.11,East,86,0.0,0.0,95,0.00,CLR,,0.00,WeatherDisplay:10.37,2013-09-24 04:09:00,
2013-09-24 00:14:00,39.6,38.3,30.11,East,86,0.0,0.0,95,0.00,CLR,,0.00,WeatherDisplay:10.37,2013-09-24 04:14:00,
2013-09-24 00:19:00,39.5,38.2,30.11,East,86,0.0,0.0,95,0.00,CLR,,0.00,WeatherDisplay:10.37,2013-09-24 04:19:00,
2013-09-24 00:24:00,39.5,38.2,30.12,East,86,0.0,0.0,95,0.00,CLR,,0.00,WeatherDisplay:10.37,2013-09-24 04:24:00,
2013-09-24 00:29:00,39.4,38.1,30.11,East,86,0.0,0.0,95,0.00,CLR,,0.00,WeatherDisplay:10.37,2013-09-24 04:29:00,
2013-09-24 00:34:00,39.4,38.1,30.11,East,86,0.0,0.0,95,0.00,CLR,,0.00,WeatherDisplay:10.37,2013-09-24 04:34:00,
2013-09-24 00:39:00,39.5,38.5,30.11,East,86,0.0,0.0,96,0.00,CLR,,0.00,WeatherDisplay:10.37,2013-09-24 04:39:00,
2013-09-24 00:44:00,39.4,38.1,30.11,East,86,0.0,0.0,95,0.00,CLR,,0.00,WeatherDisplay:10.37,2013-09-24 04:44:00,
2013-09-24 00:49:00,39.3,38.0,30.11,East,86,0.0,0.0,95,0.00,CLR,,0.00,WeatherDisplay:10.37,2013-09-24 04:49:00,
2013-09-24 00:54:00,39.1,37.8,30.11,East,86,0.0,0.0,95,0.00,CLR,,0.00,WeatherDisplay:10.37,2013-09-24 04:54:00,
2013-09-24 00:59:00,39.0,37.7,30.11,East,86,0.0,0.0,95,0.00,CLR,,0.00,WeatherDisplay:10.37,2013-09-24 04:59:00,
2013-09-24 01:04:00,38.9,37.6,30.12,East,86,0.0,0.0,95,0.00,CLR,,0.00,WeatherDisplay:10.37,2013-09-24 05:04:00,
2013-09-24 01:09:00,38.9,37.9,30.12,East,86,0.0,0.0,96,0.00,CLR,,0.00,WeatherDisplay:10.37,2013-09-24 05:09:00,
2013-09-24 01:14:00,38.9,37.9,30.12,East,86,0.0,0.0,96,0.00,CLR,,0.00,WeatherDisplay:10.37,2013-09-24 05:14:00,
2013-09-24 01:19:00,38.9,37.9,30.12,East,86,0.0,0.0,96,0.00,CLR,,0.00,WeatherDisplay:10.37,2013-09-24 05:19:00,
2013-09-24 01:24:00,38.6,37.3,30.12,East,86,0.0,0.0,95,0.00,CLR,,0.00,WeatherDisplay:10.37,2013-09-24 05:24:00,
2013-09-24 01:29:00,38.4,37.1,30.12,East,86,0.0,0.0,95,0.00,CLR,,0.00,WeatherDisplay:10.37,2013-09-24 05:29:00,
2013-09-24 01:34:00,38.2,36.9,30.12,East,86,0.0,0.0,95,0.00,CLR,,0.00,WeatherDisplay:10.37,2013-09-24 05:34:00,
2013-09-24 01:39:00,38.0,36.7,30.12,East,86,0.0,0.0,95,0.00,CLR,,0.00,WeatherDisplay:10.37,2013-09-24 05:39:00,
2013-09-24 01:44:00,37.9,36.6,30.12,East,86,0.0,0.0,95,0.00,CLR,,0.00,WeatherDisplay:10.37,2013-09-24 05:44:00,
2013-09-24 01:49:00,37.8,36.5,30.12,East,86,0.0,0.0,95,0.00,CLR,,0.00,WeatherDisplay:10.37,2013-09-24 05:49:00,
2013-09-24 01:54:00,37.7,36.7,30.12,East,86,0.0,0.0,96,0.00,CLR,,0.00,WeatherDisplay:10.37,2013-09-24 05:54:00,
2013-09-24 01:59:00,37.7,36.7,30.12,East,86,0.0,0.0,96,0.00,CLR,,0.00,WeatherDisplay:10.37,2013-09-24 05:59:00,
2013-09-24 02:04:00,37.7,36.4,30.12,East,86,0.0,0.0,95,0.00,CLR,,0.00,WeatherDisplay:10.37,2013-09-24 06:04:00,
2013-09-24 02:09:00,37.7,36.7,30.12,East,86,0.0,0.0,96,0.00,CLR,,0.00,WeatherDisplay:10.37,2013-09-24 06:09:00,
2013-09-24 02:14:00,37.7,36.7,30.13,East,86,0.0,0.0,96,0.00,CLR,,0.00,WeatherDisplay:10.37,2013-09-24 06:14:00,
2013-09-24 02:20:00,37.4,36.1,30.12,East,86,0.0,0.0,95,0.00,CLR,,0.00,WeatherDisplay:10.37,2013-09-24 06:20:00,
2013-09-24 02:25:00,37.1,35.8,30.12,East,86,0.0,0.0,95,0.00,CLR,,0.00,WeatherDisplay:10.37,2013-09-24 06:25:00,
2013-09-24 02:30:00,36.9,35.6,30.12,East,86,0.0,0.0,95,0.00,CLR,,0.00,WeatherDisplay:10.37,2013-09-24 06:30:00,
2013-09-24 02:35:00,36.7,35.4,30.12,East,86,0.0,0.0,95,0.00,CLR,,0.00,WeatherDisplay:10.37,2013-09-24 06:35:00,
2013-09-24 02:40:00,36.6,35.6,30.12,East,86,0.0,0.0,96,0.00,CLR,,0.00,WeatherDisplay:10.37,2013-09-24 06:40:00,
2013-09-24 02:45:00,36.7,35.7,30.12,East,86,0.0,0.0,96,0.00,CLR,,0.00,WeatherDisplay:10.37,2013-09-24 06:45:00,
2013-09-24 02:50:00,36.6,35.6,30.12,East,86,0.0,0.0,96,0.00,CLR,,0.00,WeatherDisplay:10.37,2013-09-24 06:50:00,
2013-09-24 02:55:00,36.4,35.4,30.12,East,86,0.0,0.0,96,0.00,CLR,,0.00,WeatherDisplay:10.37,2013-09-24 06:55:00,
2013-09-24 03:00:00,36.2,34.9,30.12,East,86,0.0,0.0,95,0.00,CLR,,0.00,WeatherDisplay:10.37,2013-09-24 07:00:00,
2013-09-24 03:05:00,36.0,34.7,30.12,East,86,0.0,0.0,95,0.00,CLR,,0.00,WeatherDisplay:10.37,2013-09-24 07:05:00,
2013-09-24 03:10:00,35.9,34.9,30.11,East,86,0.0,0.0,96,0.00,CLR,,0.00,WeatherDisplay:10.37,2013-09-24 07:10:00,
2013-09-24 03:15:00,35.9,34.9,30.11,East,86,0.0,0.0,96,0.00,CLR,,0.00,WeatherDisplay:10.37,2013-09-24 07:15:00,
2013-09-24 03:20:00,36.0,35.0,30.11,East,86,0.0,0.0,96,0.00,CLR,,0.00,WeatherDisplay:10.37,2013-09-24 07:20:00,
2013-09-24 03:25:00,36.0,35.0,30.11,East,86,0.0,0.0,96,0.00,CLR,,0.00,WeatherDisplay:10.37,2013-09-24 07:25:00,
2013-09-24 03:30:00,35.8,34.8,30.11,East,86,0.0,0.0,96,0.00,CLR,,0.00,WeatherDisplay:10.37,2013-09-24 07:30:00,
2013-09-24 03:35:00,35.7,34.7,30.11,East,86,0.0,0.0,96,0.00,CLR,,0.00,WeatherDisplay:10.37,2013-09-24 07:35:00,
2013-09-24 03:40:00,35.7,34.7,30.11,East,86,0.0,0.0,96,0.00,CLR,,0.00,WeatherDisplay:10.37,2013-09-24 07:40:00,
2013-09-24 03:45:00,35.9,34.9,30.11,East,86,0.0,0.0,96,0.00,CLR,,0.00,WeatherDisplay:10.37,2013-09-24 07:45:00,
2013-09-24 03:50:00,36.0,35.0,30.11,East,86,0.0,0.0,96,0.00,CLR,,0.00,WeatherDisplay:10.37,2013-09-24 07:50:00,
2013-09-24 03:55:00,36.0,35.0,30.11,East,86,0.0,0.0,96,0.00,CLR,,0.00,WeatherDisplay:10.37,2013-09-24 07:55:00,
2013-09-24 04:00:00,35.8,34.8,30.11,East,86,0.0,0.0,96,0.00,CLR,,0.00,WeatherDisplay:10.37,2013-09-24 08:00:00,
2013-09-24 04:05:00,35.6,34.6,30.11,East,86,0.0,0.0,96,0.00,CLR,,0.00,WeatherDisplay:10.37,2013-09-24 08:05:00,
2013-09-24 04:10:00,35.4,34.4,30.11,East,86,0.0,0.0,96,0.00,CLR,,0.00,WeatherDisplay:10.37,2013-09-24 08:10:00,
2013-09-24 04:15:00,35.3,34.3,30.11,East,86,0.0,0.0,96,0.00,CLR,,0.00,WeatherDisplay:10.37,2013-09-24 08:15:00,
2013-09-24 04:20:00,35.2,34.2,30.11,East,86,0.0,0.0,96,0.00,CLR,,0.00,WeatherDisplay:10.37,2013-09-24 08:20:00,
2013-09-24 04:25:00,35.1,34.1,30.11,East,86,0.0,0.0,96,0.00,CLR,,0.00,WeatherDisplay:10.37,2013-09-24 08:25:00,
2013-09-24 04:30:00,35.0,34.0,30.11,East,86,0.0,0.0,96,0.00,CLR,,0.00,WeatherDisplay:10.37,2013-09-24 08:30:00,
2013-09-24 04:35:00,34.9,33.9,30.11,East,86,0.0,0.0,96,0.00,CLR,,0.00,WeatherDisplay:10.37,2013-09-24 08:35:00,
2013-09-24 04:40:00,34.8,33.8,30.11,East,86,0.0,0.0,96,0.00,CLR,,0.00,WeatherDisplay:10.37,2013-09-24 08:40:00,
2013-09-24 04:45:00,34.6,33.6,30.11,East,86,0.0,0.0,96,0.00,CLR,,0.00,WeatherDisplay:10.37,2013-09-24 08:45:00,
2013-09-24 04:50:00,34.4,33.4,30.12,East,86,0.0,0.0,96,0.00,CLR,,0.00,WeatherDisplay:10.37,2013-09-24 08:50:00,
2013-09-24 04:55:00,34.4,33.4,30.12,East,86,0.0,0.0,96,0.00,CLR,,0.00,WeatherDisplay:10.37,2013-09-24 08:55:00,
2013-09-24 05:00:00,34.4,33.4,30.12,East,86,0.0,0.0,96,0.00,CLR,,0.00,WeatherDisplay:10.37,2013-09-24 09:00:00,
2013-09-24 05:05:00,34.4,33.4,30.12,East,86,0.0,0.0,96,0.00,CLR,,0.00,WeatherDisplay:10.37,2013-09-24 09:05:00,
2013-09-24 05:10:00,34.5,33.5,30.12,East,86,0.0,0.0,96,0.00,CLR,,0.00,WeatherDisplay:10.37,2013-09-24 09:10:00,
2013-09-24 05:15:00,34.4,33.4,30.12,East,86,0.0,0.0,96,0.00,CLR,,0.00,WeatherDisplay:10.37,2013-09-24 09:15:00,
2013-09-24 05:20:00,34.4,33.4,30.12,East,86,0.0,0.0,96,0.00,CLR,,0.00,WeatherDisplay:10.37,2013-09-24 09:20:00,
2013-09-24 05:25:00,34.2,33.2,30.12,East,86,0.0,0.0,96,0.00,CLR,,0.00,WeatherDisplay:10.37,2013-09-24 09:25:00,
2013-09-24 05:30:00,34.1,33.1,30.12,East,86,0.0,0.0,96,0.00,CLR,,0.00,WeatherDisplay:10.37,2013-09-24 09:30:00,
2013-09-24 05:35:00,34.1,33.1,30.12,East,86,0.0,0.0,96,0.00,CLR,,0.00,WeatherDisplay:10.37,2013-09-24 09:35:00,
2013-09-24 05:40:00,34.1,33.1,30.12,East,86,0.0,0.0,96,0.00,CLR,,0.00,WeatherDisplay:10.37,2013-09-24 09:40:00,
2013-09-24 05:45:00,33.9,32.9,30.12,East,86,0.0,0.0,96,0.00,CLR,,0.00,WeatherDisplay:10.37,2013-09-24 09:45:00,
2013-09-24 05:50:00,33.7,32.7,30.13,East,86,0.0,0.0,96,0.00,CLR,,0.00,WeatherDisplay:10.37,2013-09-24 09:50:00,
2013-09-24 05:55:00,33.5,32.5,30.13,East,86,0.0,0.0,96,0.00,CLR,,0.00,WeatherDisplay:10.37,2013-09-24 09:55:00,
2013-09-24 06:00:00,33.3,32.3,30.13,East,86,0.0,0.0,96,0.00,CLR,,0.00,WeatherDisplay:10.37,2013-09-24 10:00:00,
2013-09-24 06:05:00,33.2,32.2,30.13,East,86,0.0,0.0,96,0.00,CLR,,0.00,WeatherDisplay:10.37,2013-09-24 10:05:00,
2013-09-24 06:10:00,33.0,32.0,30.12,East,86,0.0,0.0,96,0.00,CLR,,0.00,WeatherDisplay:10.37,2013-09-24 10:10:00,
2013-09-24 06:15:00,33.0,32.0,30.12,East,86,0.0,0.0,96,0.00,CLR,,0.00,WeatherDisplay:10.37,2013-09-24 10:15:00,
2013-09-24 06:20:00,33.1,32.1,30.12,East,86,0.0,0.0,96,0.00,CLR,,0.00,WeatherDisplay:10.37,2013-09-24 10:20:00,
2013-09-24 06:25:00,33.0,32.0,30.12,East,86,0.0,0.0,96,0.00,CLR,,0.00,WeatherDisplay:10.37,2013-09-24 10:25:00,
2013-09-24 06:30:00,33.0,32.0,30.13,East,86,0.0,0.0,96,0.00,CLR,,0.00,WeatherDisplay:10.37,2013-09-24 10:30:00,
2013-09-24 06:35:00,33.2,32.2,30.13,East,86,0.0,0.0,96,0.00,CLR,,0.00,WeatherDisplay:10.37,2013-09-24 10:35:00,
2013-09-24 06:40:00,33.3,32.3,30.13,East,86,0.0,0.0,96,0.00,CLR,,0.00,WeatherDisplay:10.37,2013-09-24 10:40:00,
2013-09-24 06:45:00,33.4,32.4,30.13,East,86,0.0,0.0,96,0.00,CLR,,0.00,WeatherDisplay:10.37,2013-09-24 10:45:00,
2013-09-24 06:50:00,33.2,32.2,30.13,East,86,0.0,0.0,96,0.00,CLR,,0.00,WeatherDisplay:10.37,2013-09-24 10:50:00,
2013-09-24 06:55:00,32.9,31.9,30.13,East,86,0.0,0.0,96,0.00,CLR,,0.00,WeatherDisplay:10.37,2013-09-24 10:55:00,
2013-09-24 07:00:00,32.7,31.7,30.13,East,86,0.0,0.0,96,0.00,CLR,,0.00,WeatherDisplay:10.37,2013-09-24 11:00:00,
2013-09-24 07:06:00,32.5,31.5,30.13,East,86,0.0,0.0,96,0.00,CLR,,0.00,WeatherDisplay:10.37,2013-09-24 11:06:00,
2013-09-24 07:11:00,32.6,31.6,30.13,East,86,0.0,0.0,96,0.00,CLR,,0.00,WeatherDisplay:10.37,2013-09-24 11:11:00,
2013-09-24 07:16:00,32.7,31.7,30.13,East,86,0.0,0.0,96,0.00,CLR,,0.00,WeatherDisplay:10.37,2013-09-24 11:16:00,
2013-09-24 07:21:00,32.8,31.8,30.13,East,86,0.0,0.0,96,0.00,CLR,,0.00,WeatherDisplay:10.37,2013-09-24 11:21:00,
2013-09-24 07:26:00,32.9,31.9,30.13,East,86,0.0,0.0,96,0.00,CLR,,0.00,WeatherDisplay:10.37,2013-09-24 11:26:00,
2013-09-24 07:31:00,32.9,31.9,30.13,East,86,0.0,0.0,96,0.00,CLR,,0.00,WeatherDisplay:10.37,2013-09-24 11:31:00,
2013-09-24 07:36:00,32.9,31.9,30.13,East,86,0.0,0.0,96,0.00,CLR,,0.00,WeatherDisplay:10.37,2013-09-24 11:36:00,
2013-09-24 07:41:00,33.0,32.0,30.13,East,86,0.0,0.0,96,0.00,CLR,,0.00,WeatherDisplay:10.37,2013-09-24 11:41:00,
2013-09-24 07:46:00,32.9,31.9,30.13,East,86,0.0,0.0,96,0.00,CLR,,0.00,WeatherDisplay:10.37,2013-09-24 11:46:00,
2013-09-24 07:51:00,32.8,31.8,30.14,East,86,0.0,0.0,96,0.00,CLR,,0.00,WeatherDisplay:10.37,2013-09-24 11:51:00,
2013-09-24 07:57:00,32.8,31.8,30.14,East,86,0.0,0.0,96,0.00,CLR,,0.00,WeatherDisplay:10.37,2013-09-24 11:57:00,
2013-09-24 08:02:00,32.9,31.9,30.14,East,86,0.0,0.0,96,0.00,CLR,,0.00,WeatherDisplay:10.37,2013-09-24 12:02:00,
2013-09-24 08:07:00,33.1,32.3,30.14,East,86,0.0,0.0,97,0.00,CLR,,0.00,WeatherDisplay:10.37,2013-09-24 12:07:00,
2013-09-24 08:12:00,33.4,32.6,30.14,East,86,0.0,0.0,97,0.00,CLR,,0.00,WeatherDisplay:10.37,2013-09-24 12:12:00,
2013-09-24 08:17:00,33.7,32.9,30.14,East,86,0.0,0.0,97,0.00,CLR,,0.00,WeatherDisplay:10.37,2013-09-24 12:17:00,
2013-09-24 08:22:00,33.9,33.1,30.14,East,86,0.0,0.0,97,0.00,CLR,,0.00,WeatherDisplay:10.37,2013-09-24 12:22:00,
2013-09-24 08:27:00,34.0,33.2,30.14,East,86,0.0,0.0,97,0.00,CLR,,0.00,WeatherDisplay:10.37,2013-09-24 12:27:00,
2013-09-24 08:32:00,34.3,33.5,30.14,East,86,0.0,0.0,97,0.00,CLR,,0.00,WeatherDisplay:10.37,2013-09-24 12:32:00,
2013-09-24 08:37:00,34.4,33.6,30.14,East,86,0.0,0.0,97,0.00,CLR,,0.00,WeatherDisplay:10.37,2013-09-24 12:37:00,
2013-09-24 08:42:00,35.2,34.4,30.14,East,86,0.0,0.0,97,0.00,CLR,,0.00,WeatherDisplay:10.37,2013-09-24 12:42:00,
2013-09-24 08:47:00,36.2,35.4,30.14,East,86,0.0,0.0,97,0.00,CLR,,0.00,WeatherDisplay:10.37,2013-09-24 12:47:00,
2013-09-24 08:52:00,37.2,36.4,30.14,East,86,0.0,0.0,97,0.00,CLR,,0.00,WeatherDisplay:10.37,2013-09-24 12:52:00,
2013-09-24 08:57:00,38.1,37.3,30.14,East,86,0.0,0.0,97,0.00,CLR,,0.00,WeatherDisplay:10.37,2013-09-24 12:57:00,
2013-09-24 09:02:00,38.8,38.0,30.14,East,86,0.0,0.0,97,0.00,CLR,,0.00,WeatherDisplay:10.37,2013-09-24 13:02:00,
2013-09-24 09:07:00,39.5,38.7,30.14,East,86,0.0,0.0,97,0.00,CLR,,0.00,WeatherDisplay:10.37,2013-09-24 13:07:00,
2013-09-24 09:12:00,40.3,39.5,30.14,East,86,0.0,0.0,97,0.00,CLR,,0.00,WeatherDisplay:10.37,2013-09-24 13:12:00,
2013-09-24 09:17:00,41.3,40.5,30.14,East,86,0.0,0.0,97,0.00,CLR,,0.00,WeatherDisplay:10.37,2013-09-24 13:17:00,
2013-09-24 09:22:00,42.4,41.9,30.14,East,86,0.0,0.0,98,0.00,CLR,,0.00,WeatherDisplay:10.37,2013-09-24 13:22:00,
2013-09-24 09:27:00,43.5,43.0,30.14,East,86,0.0,0.0,98,0.00,CLR,,0.00,WeatherDisplay:10.37,2013-09-24 13:27:00,
2013-09-24 09:32:00,44.7,44.2,30.14,East,86,0.0,0.0,98,0.00,CLR,,0.00,WeatherDisplay:10.37,2013-09-24 13:32:00,
2013-09-24 09:37:00,45.8,45.3,30.13,East,86,0.0,0.0,98,0.00,CLR,,0.00,WeatherDisplay:10.37,2013-09-24 13:37:00,
2013-09-24 09:42:00,46.7,45.9,30.14,East,86,0.0,0.0,97,0.00,CLR,,0.00,WeatherDisplay:10.37,2013-09-24 13:42:00,
2013-09-24 09:47:00,47.9,46.8,30.13,East,86,0.0,0.0,96,0.00,CLR,,0.00,WeatherDisplay:10.37,2013-09-24 13:47:00,
2013-09-24 09:52:00,49.3,47.6,30.14,East,86,0.0,0.0,94,0.00,CLR,,0.00,WeatherDisplay:10.37,2013-09-24 13:52:00,
2013-09-24 09:57:00,50.4,47.9,30.13,East,86,0.0,0.0,91,0.00,CLR,,0.00,WeatherDisplay:10.37,2013-09-24 13:57:00,
2013-09-24 10:02:00,51.2,48.1,30.14,East,86,0.0,0.0,89,0.00,CLR,,0.00,WeatherDisplay:10.37,2013-09-24 14:02:00,
2013-09-24 10:07:00,52.3,48.5,30.14,East,86,0.0,0.0,87,0.00,CLR,,0.00,WeatherDisplay:10.37,2013-09-24 14:07:00,
2013-09-24 10:12:00,53.1,48.7,30.14,East,86,0.0,0.0,85,0.00,CLR,,0.00,WeatherDisplay:10.37,2013-09-24 14:12:00,
2013-09-24 10:17:00,53.6,48.6,30.13,East,86,0.0,0.0,83,0.00,CLR,,0.00,WeatherDisplay:10.37,2013-09-24 14:17:00,
2013-09-24 10:22:00,54.0,48.6,30.13,East,86,1.1,1.1,82,0.00,CLR,,0.00,WeatherDisplay:10.37,2013-09-24 14:22:00,
2013-09-24 10:27:00,54.2,48.5,30.13,East,86,1.1,0.0,81,0.00,CLR,,0.00,WeatherDisplay:10.37,2013-09-24 14:27:00,
2013-09-24 10:32:00,54.7,48.6,30.13,East,86,2.3,0.0,80,0.00,CLR,,0.00,WeatherDisplay:10.37,2013-09-24 14:32:00,
2013-09-24 10:37:00,54.6,48.6,30.12,East,86,0.0,0.0,80,0.00,CLR,,0.00,WeatherDisplay:10.37,2013-09-24 14:37:00,
2013-09-24 10:42:00,55.1,49.4,30.12,East,86,1.0,1.0,81,0.00,CLR,,0.00,WeatherDisplay:10.37,2013-09-24 14:42:00,
2013-09-24 10:47:00,55.2,48.8,30.12,East,90,1.1,0.0,79,0.00,CLR,,0.00,WeatherDisplay:10.37,2013-09-24 14:47:00,
2013-09-24 10:52:00,55.7,48.9,30.12,East,90,0.0,0.0,78,0.00,CLR,,0.00,WeatherDisplay:10.37,2013-09-24 14:52:00,
2013-09-24 10:57:00,56.0,49.2,30.12,East,91,0.0,0.0,78,0.00,CLR,,0.00,WeatherDisplay:10.37,2013-09-24 14:57:00,
2013-09-24 11:02:00,55.9,48.8,30.12,East,92,0.0,0.0,77,0.00,CLR,,0.00,WeatherDisplay:10.37,2013-09-24 15:02:00,
2013-09-24 11:07:00,56.7,49.6,30.12,East,91,0.0,0.0,77,0.00,CLR,,0.00,WeatherDisplay:10.37,2013-09-24 15:07:00,
2013-09-24 11:12:00,57.5,49.6,30.12,East,92,0.0,0.0,75,0.00,CLR,,0.00,WeatherDisplay:10.37,2013-09-24 15:12:00,
2013-09-24 11:17:00,57.7,49.1,30.12,East,92,1.1,0.0,73,0.00,CLR,,0.00,WeatherDisplay:10.37,2013-09-24 15:17:00,
2013-09-24 11:22:00,58.2,49.6,30.12,East,91,0.0,0.0,73,0.00,CLR,,0.00,WeatherDisplay:10.37,2013-09-24 15:22:00,
2013-09-24 11:28:00,58.2,48.8,30.12,ESE,117,3.5,3.5,71,0.00,CLR,,0.00,WeatherDisplay:10.37,2013-09-24 15:28:00,
2013-09-24 11:33:00,58.3,47.4,30.12,ESE,118,0.0,0.0,67,0.00,CLR,,0.00,WeatherDisplay:10.37,2013-09-24 15:33:00,
2013-09-24 11:38:00,58.9,48.0,30.12,ESE,117,0.0,0.0,67,0.00,CLR,,0.00,WeatherDisplay:10.37,2013-09-24 15:38:00,
2013-09-24 11:43:00,59.0,48.1,30.12,ESE,117,0.0,0.0,67,0.00,CLR,,0.00,WeatherDisplay:10.37,2013-09-24 15:43:00,
2013-09-24 11:48:00,59.0,47.7,30.12,ESE,118,1.1,0.0,66,0.00,CLR,,0.00,WeatherDisplay:10.37,2013-09-24 15:48:00,
2013-09-24 11:53:00,59.0,48.1,30.11,ESE,118,1.1,0.0,67,0.00,CLR,,0.00,WeatherDisplay:10.37,2013-09-24 15:53:00,
2013-09-24 11:58:00,58.7,48.2,30.11,ESE,117,1.1,0.0,68,0.00,CLR,,0.00,WeatherDisplay:10.37,2013-09-24 15:58:00,
2013-09-24 12:03:00,58.4,48.3,30.11,ESE,117,1.1,1.1,69,0.00,CLR,,0.00,WeatherDisplay:10.37,2013-09-24 16:03:00,
2013-09-24 12:08:00,58.4,49.0,30.11,ESE,117,1.1,0.0,71,0.00,CLR,,0.00,WeatherDisplay:10.37,2013-09-24 16:08:00,
2013-09-24 12:13:00,58.4,49.4,30.10,ESE,117,0.0,0.0,72,0.00,CLR,,0.00,WeatherDisplay:10.37,2013-09-24 16:13:00,
2013-09-24 12:18:00,59.0,48.8,30.10,ESE,117,0.0,0.0,69,0.00,CLR,,0.00,WeatherDisplay:10.37,2013-09-24 16:18:00,
2013-09-24 12:23:00,59.8,49.6,30.10,ESE,117,0.0,0.0,69,0.00,CLR,,0.00,WeatherDisplay:10.37,2013-09-24 16:23:00,
2013-09-24 12:28:00,60.3,48.5,30.10,SE,129,0.0,0.0,65,0.00,CLR,,0.00,WeatherDisplay:10.37,2013-09-24 16:28:00,
2013-09-24 12:33:00,61.0,48.7,30.09,SE,129,1.1,0.0,64,0.00,CLR,,0.00,WeatherDisplay:10.37,2013-09-24 16:33:00,
2013-09-24 12:38:00,61.6,49.7,30.09,SE,128,0.0,0.0,65,0.00,CLR,,0.00,WeatherDisplay:10.37,2013-09-24 16:38:00,
2013-09-24 12:43:00,62.2,49.4,30.09,SE,128,0.0,0.0,63,0.00,CLR,,0.00,WeatherDisplay:10.37,2013-09-24 16:43:00,
2013-09-24 12:48:00,62.0,48.0,30.09,ESE,115,3.5,3.5,60,0.00,CLR,,0.00,WeatherDisplay:10.37,2013-09-24 16:48:00,
2013-09-24 12:53:00,61.1,48.4,30.09,ESE,114,1.1,1.1,63,0.00,CLR,,0.00,WeatherDisplay:10.37,2013-09-24 16:53:00,
2013-09-24 12:58:00,61.4,49.1,30.08,ESE,115,1.1,1.1,64,0.00,CLR,,0.00,WeatherDisplay:10.37,2013-09-24 16:58:00,
2013-09-24 13:03:00,61.3,48.2,30.08,ENE,57,0.0,0.0,62,0.00,CLR,,0.00,WeatherDisplay:10.37,2013-09-24 17:03:00,
2013-09-24 13:08:00,62.0,49.7,30.07,ENE,69,1.1,1.1,64,0.00,CLR,,0.00,WeatherDisplay:10.37,2013-09-24 17:08:00,
2013-09-24 13:13:00,62.4,48.8,30.07,ENE,65,1.1,1.1,61,0.00,CLR,,0.00,WeatherDisplay:10.37,2013-09-24 17:13:00,
2013-09-24 13:18:00,62.9,49.2,30.07,ENE,69,0.0,0.0,61,0.00,CLR,,0.00,WeatherDisplay:10.37,2013-09-24 17:18:00,
2013-09-24 13:23:00,62.3,48.7,30.07,SE,128,3.5,3.5,61,0.00,CLR,,0.00,WeatherDisplay:10.37,2013-09-24 17:23:00,
2013-09-24 13:28:00,62.0,48.0,30.07,South,182,3.5,3.5,60,0.00,CLR,,0.00,WeatherDisplay:10.37,2013-09-24 17:28:00,
2013-09-24 13:33:00,61.7,48.1,30.06,SSW,199,0.0,0.0,61,0.00,CLR,,0.00,WeatherDisplay:10.37,2013-09-24 17:33:00,
2013-09-24 13:38:00,62.3,48.2,30.05,SSE,165,3.5,3.5,60,0.00,CLR,,0.00,WeatherDisplay:10.37,2013-09-24 17:38:00,
2013-09-24 13:43:00,62.4,48.8,30.06,NE,41,3.5,3.5,61,0.00,CLR,,0.00,WeatherDisplay:10.37,2013-09-24 17:43:00,
2013-09-24 13:48:00,62.8,48.3,30.06,SSE,151,3.5,3.5,59,0.00,CLR,,0.00,WeatherDisplay:10.37,2013-09-24 17:48:00,
2013-09-24 13:53:00,62.9,49.7,30.05,East,100,3.0,3.0,62,0.00,CLR,,0.00,WeatherDisplay:10.37,2013-09-24 17:53:00,
2013-09-24 13:58:00,63.2,48.6,30.05,NE,38,1.1,1.1,59,0.00,CLR,,0.00,WeatherDisplay:10.37,2013-09-24 17:58:00,
2013-09-24 14:03:00,63.5,49.4,30.05,NE,50,1.1,0.0,60,0.00,CLR,,0.00,WeatherDisplay:10.37,2013-09-24 18:03:00,
2013-09-24 14:08:00,63.9,49.3,30.04,NE,49,0.0,0.0,59,0.00,CLR,,0.00,WeatherDisplay:10.37,2013-09-24 18:08:00,
2013-09-24 14:13:00,64.4,50.2,30.04,SSW,206,4.6,4.6,60,0.00,CLR,,0.00,WeatherDisplay:10.37,2013-09-24 18:13:00,
2013-09-24 14:18:00,64.5,48.9,30.04,East,80,3.5,3.5,57,0.00,CLR,,0.00,WeatherDisplay:10.37,2013-09-24 18:18:00,
2013-09-24 14:23:00,64.7,49.1,30.04,ENE,74,1.1,0.0,57,0.00,CLR,,0.00,WeatherDisplay:10.37,2013-09-24 18:23:00,
2013-09-24 14:28:00,64.7,49.1,30.04,South,172,5.8,5.8,57,0.00,CLR,,0.00,WeatherDisplay:10.37,2013-09-24 18:28:00,
2013-09-24 14:33:00,64.4,49.8,30.04,ESE,106,2.3,2.3,59,0.00,CLR,,0.00,WeatherDisplay:10.37,2013-09-24 18:33:00,
2013-09-24 14:38:00,64.4,50.2,30.04,ENE,76,3.5,3.5,60,0.00,CLR,,0.00,WeatherDisplay:10.37,2013-09-24 18:38:00,
2013-09-24 14:43:00,64.5,50.3,30.04,NE,56,0.0,0.0,60,0.00,CLR,,0.00,WeatherDisplay:10.37,2013-09-24 18:43:00,
2013-09-24 14:48:00,64.4,49.3,30.04,ESE,114,3.5,3.5,58,0.00,CLR,,0.00,WeatherDisplay:10.37,2013-09-24 18:48:00,
2013-09-24 14:53:00,64.5,48.9,30.04,ESE,111,1.1,1.1,57,0.00,CLR,,0.00,WeatherDisplay:10.37,2013-09-24 18:53:00,
2013-09-24 14:58:00,64.3,49.2,30.04,SSE,165,1.1,1.1,58,0.00,CLR,,0.00,WeatherDisplay:10.37,2013-09-24 18:58:00,
2013-09-24 15:03:00,64.0,47.0,30.04,ENE,59,4.6,4.6,54,0.00,CLR,,0.00,WeatherDisplay:10.37,2013-09-24 19:03:00,
2013-09-24 15:08:00,63.7,47.2,30.04,South,170,3.5,3.5,55,0.00,CLR,,0.00,WeatherDisplay:10.37,2013-09-24 19:08:00,
2013-09-24 15:13:00,64.1,46.6,30.04,SE,129,3.5,3.5,53,0.00,CLR,,0.00,WeatherDisplay:10.37,2013-09-24 19:13:00,
2013-09-24 15:18:00,64.0,46.5,30.03,ENE,77,3.5,3.5,53,0.00,CLR,,0.00,WeatherDisplay:10.37,2013-09-24 19:18:00,
2013-09-24 15:23:00,64.3,46.3,30.03,SE,135,1.1,1.1,52,0.00,CLR,,0.00,WeatherDisplay:10.37,2013-09-24 19:23:00,
2013-09-24 15:28:00,64.6,47.1,30.03,North,360,0.0,0.0,53,0.00,CLR,,0.00,WeatherDisplay:10.37,2013-09-24 19:28:00,
2013-09-24 15:33:00,64.9,46.3,30.03,NE,38,3.5,3.5,51,0.00,CLR,,0.00,WeatherDisplay:10.37,2013-09-24 19:33:00,
2013-09-24 15:38:00,64.3,45.8,30.03,ESE,107,4.6,4.6,51,0.00,CLR,,0.00,WeatherDisplay:10.37,2013-09-24 19:38:00,
2013-09-24 15:43:00,64.2,45.7,30.02,ESE,107,3.5,3.5,51,0.00,CLR,,0.00,WeatherDisplay:10.37,2013-09-24 19:43:00,
2013-09-24 15:48:00,64.3,46.3,30.03,East,80,1.1,1.1,52,0.00,CLR,,0.00,WeatherDisplay:10.37,2013-09-24 19:48:00,
2013-09-24 15:53:00,64.2,45.2,30.02,ESE,115,1.1,1.1,50,0.00,CLR,,0.00,WeatherDisplay:10.37,2013-09-24 19:53:00,
2013-09-24 15:58:00,64.5,44.9,30.02,ESE,121,2.3,2.3,49,0.00,CLR,,0.00,WeatherDisplay:10.37,2013-09-24 19:58:00,
2013-09-24 16:03:00,64.6,44.5,30.02,SE,137,1.1,1.1,48,0.00,CLR,,0.00,WeatherDisplay:10.37,2013-09-24 20:03:00,
2013-09-24 16:08:00,64.7,45.6,30.02,SE,128,1.1,1.1,50,0.00,CLR,,0.00,WeatherDisplay:10.37,2013-09-24 20:08:00,
2013-09-24 16:13:00,65.0,46.4,30.02,SE,128,0.0,0.0,51,0.00,CLR,,0.00,WeatherDisplay:10.37,2013-09-24 20:13:00,
2013-09-24 16:18:00,64.9,47.9,30.02,ESE,103,3.5,3.5,54,0.00,CLR,,0.00,WeatherDisplay:10.37,2013-09-24 20:18:00,
2013-09-24 16:23:00,64.5,47.5,30.02,SE,140,3.5,3.5,54,0.00,CLR,,0.00,WeatherDisplay:10.37,2013-09-24 20:23:00,
2013-09-24 16:28:00,64.5,47.5,30.01,ESE,113,1.1,0.0,54,0.00,CLR,,0.00,WeatherDisplay:10.37,2013-09-24 20:28:00,
2013-09-24 16:33:00,64.5,48.4,30.02,SSE,148,1.1,1.1,56,0.00,CLR,,0.00,WeatherDisplay:10.37,2013-09-24 20:33:00,
2013-09-24 16:38:00,64.4,48.8,30.01,SE,146,1.1,0.0,57,0.00,CLR,,0.00,WeatherDisplay:10.37,2013-09-24 20:38:00,
2013-09-24 16:43:00,64.6,49.0,30.01,NE,36,1.1,0.0,57,0.00,CLR,,0.00,WeatherDisplay:10.37,2013-09-24 20:43:00,
2013-09-24 16:48:00,64.6,48.5,30.01,ESE,116,5.8,5.8,56,0.00,CLR,,0.00,WeatherDisplay:10.37,2013-09-24 20:48:00,
2013-09-24 16:53:00,64.1,48.5,30.01,SSE,148,2.3,2.3,57,0.00,CLR,,0.00,WeatherDisplay:10.37,2013-09-24 20:53:00,
2013-09-24 16:58:00,64.1,49.0,30.01,ENE,69,3.5,3.5,58,0.00,CLR,,0.00,WeatherDisplay:10.37,2013-09-24 20:58:00,
2013-09-24 17:03:00,64.1,49.5,30.00,East,86,1.1,1.1,59,0.00,CLR,,0.00,WeatherDisplay:10.37,2013-09-24 21:03:00,
2013-09-24 17:08:00,64.0,48.9,30.01,SSE,157,4.6,4.6,58,0.00,CLR,,0.00,WeatherDisplay:10.37,2013-09-24 21:08:00,
2013-09-24 17:13:00,64.0,49.8,30.00,ESE,117,1.1,0.0,60,0.00,CLR,,0.00,WeatherDisplay:10.37,2013-09-24 21:13:00,
2013-09-24 17:18:00,64.0,49.8,30.00,SE,130,0.0,0.0,60,0.00,CLR,,0.00,WeatherDisplay:10.37,2013-09-24 21:18:00,
2013-09-24 17:23:00,63.8,49.6,30.01,ENE,78,2.3,2.3,60,0.00,CLR,,0.00,WeatherDisplay:10.37,2013-09-24 21:23:00,
2013-09-24 17:28:00,63.6,49.5,30.00,SE,141,4.6,4.6,60,0.00,CLR,,0.00,WeatherDisplay:10.37,2013-09-24 21:28:00,
2013-09-24 17:33:00,63.8,50.1,30.00,SE,127,1.1,0.0,61,0.00,CLR,,0.00,WeatherDisplay:10.37,2013-09-24 21:33:00,
2013-09-24 17:38:00,63.8,50.5,30.01,ESE,117,1.1,1.1,62,0.00,CLR,,0.00,WeatherDisplay:10.37,2013-09-24 21:38:00,
2013-09-24 17:43:00,63.7,50.4,30.01,ESE,110,0.0,0.0,62,0.00,CLR,,0.00,WeatherDisplay:10.37,2013-09-24 21:43:00,
2013-09-24 17:48:00,63.7,50.4,30.01,ENE,77,1.1,1.1,62,0.00,CLR,,0.00,WeatherDisplay:10.37,2013-09-24 21:48:00,
2013-09-24 17:53:00,63.1,50.3,30.01,East,96,0.0,0.0,63,0.00,CLR,,0.00,WeatherDisplay:10.37,2013-09-24 21:53:00,
2013-09-24 17:58:00,62.8,50.4,30.01,East,92,0.0,0.0,64,0.00,CLR,,0.00,WeatherDisplay:10.37,2013-09-24 21:58:00,
2013-09-24 18:03:00,62.6,50.7,30.01,East,88,0.0,0.0,65,0.00,CLR,,0.00,WeatherDisplay:10.37,2013-09-24 22:03:00,
2013-09-24 18:08:00,62.3,50.8,30.01,ENE,61,4.6,4.6,66,0.00,CLR,,0.00,WeatherDisplay:10.37,2013-09-24 22:08:00,
2013-09-24 18:13:00,62.0,51.3,30.01,ENE,63,0.0,0.0,68,0.00,CLR,,0.00,WeatherDisplay:10.37,2013-09-24 22:13:00,
2013-09-24 18:18:00,61.7,50.6,30.01,East,82,1.1,0.0,67,0.00,CLR,,0.00,WeatherDisplay:10.37,2013-09-24 22:18:00,
2013-09-24 18:23:00,61.5,50.8,30.01,East,82,0.0,0.0,68,0.00,CLR,,0.00,WeatherDisplay:10.37,2013-09-24 22:23:00,
2013-09-24 18:28:00,61.4,51.1,30.01,East,82,1.1,0.0,69,0.00,CLR,,0.00,WeatherDisplay:10.37,2013-09-24 22:28:00,
2013-09-24 18:33:00,61.1,50.8,30.01,East,83,2.3,2.3,69,0.00,CLR,,0.00,WeatherDisplay:10.37,2013-09-24 22:33:00,
2013-09-24 18:38:00,60.7,51.2,30.00,East,80,0.0,0.0,71,0.00,CLR,,0.00,WeatherDisplay:10.37,2013-09-24 22:38:00,
2013-09-24 18:43:00,60.5,51.4,30.00,East,80,0.0,0.0,72,0.00,CLR,,0.00,WeatherDisplay:10.37,2013-09-24 22:43:00,
2013-09-24 18:48:00,60.1,51.0,30.00,ENE,77,0.0,0.0,72,0.00,CLR,,0.00,WeatherDisplay:10.37,2013-09-24 22:48:00,
2013-09-24 18:53:00,59.7,51.0,30.00,ENE,77,0.0,0.0,73,0.00,CLR,,0.00,WeatherDisplay:10.37,2013-09-24 22:53:00,
2013-09-24 18:58:00,59.3,51.4,30.00,ENE,76,0.0,0.0,75,0.00,CLR,,0.00,WeatherDisplay:10.37,2013-09-24 22:58:00,
2013-09-24 19:03:00,59.0,51.4,30.00,ENE,77,0.0,0.0,76,0.00,CLR,,0.00,WeatherDisplay:10.37,2013-09-24 23:03:00,
2013-09-24 19:08:00,58.5,51.3,30.00,ENE,77,0.0,0.0,77,0.00,CLR,,0.00,WeatherDisplay:10.37,2013-09-24 23:08:00,
2013-09-24 19:13:00,58.1,51.3,30.00,ENE,77,0.0,0.0,78,0.00,CLR,,0.00,WeatherDisplay:10.37,2013-09-24 23:13:00,
2013-09-24 19:18:00,57.5,51.0,30.00,ENE,77,0.0,0.0,79,0.00,CLR,,0.00,WeatherDisplay:10.37,2013-09-24 23:18:00,
2013-09-24 19:23:00,57.0,50.5,30.00,ENE,76,0.0,0.0,79,0.00,CLR,,0.00,WeatherDisplay:10.37,2013-09-24 23:23:00,
2013-09-24 19:28:00,56.6,50.5,30.00,ENE,76,0.0,0.0,80,0.00,CLR,,0.00,WeatherDisplay:10.37,2013-09-24 23:28:00,
2013-09-24 19:33:00,56.2,50.8,30.00,ENE,76,0.0,0.0,82,0.00,CLR,,0.00,WeatherDisplay:10.37,2013-09-24 23:33:00,
2013-09-24 19:38:00,55.6,50.2,30.00,ENE,76,0.0,0.0,82,0.00,CLR,,0.00,WeatherDisplay:10.37,2013-09-24 23:38:00,
2013-09-24 19:43:00,55.1,50.0,30.00,ENE,77,0.0,0.0,83,0.00,CLR,,0.00,WeatherDisplay:10.37,2013-09-24 23:43:00,
2013-09-24 19:48:00,54.6,49.5,30.00,ENE,77,0.0,0.0,83,0.00,CLR,,0.00,WeatherDisplay:10.37,2013-09-24 23:48:00,
2013-09-24 19:53:00,54.3,49.6,30.00,ENE,76,0.0,0.0,84,0.00,CLR,,0.00,WeatherDisplay:10.37,2013-09-24 23:53:00,
2013-09-24 19:58:00,54.0,49.6,30.00,ENE,76,0.0,0.0,85,0.00,CLR,,0.00,WeatherDisplay:10.37,2013-09-24 23:58:00,
2013-09-24 20:03:00,53.7,49.6,30.00,ENE,77,0.0,0.0,86,0.00,CLR,,0.00,WeatherDisplay:10.37,2013-09-25 00:03:00,
2013-09-24 20:08:00,53.3,49.2,30.00,ENE,77,0.0,0.0,86,0.00,CLR,,0.00,WeatherDisplay:10.37,2013-09-25 00:08:00,
2013-09-24 20:13:00,53.0,49.2,30.00,ENE,77,0.0,0.0,87,0.00,CLR,,0.00,WeatherDisplay:10.37,2013-09-25 00:13:00,
2013-09-24 20:18:00,52.7,48.9,30.00,ENE,77,0.0,0.0,87,0.00,CLR,,0.00,WeatherDisplay:10.37,2013-09-25 00:18:00,
2013-09-24 20:23:00,52.3,48.9,30.00,ENE,77,0.0,0.0,88,0.00,CLR,,0.00,WeatherDisplay:10.37,2013-09-25 00:23:00,
2013-09-24 20:28:00,52.0,48.6,30.00,ENE,77,0.0,0.0,88,0.00,CLR,,0.00,WeatherDisplay:10.37,2013-09-25 00:28:00,
2013-09-24 20:33:00,51.6,48.2,30.00,ENE,76,0.0,0.0,88,0.00,CLR,,0.00,WeatherDisplay:10.37,2013-09-25 00:33:00,
2013-09-24 20:38:00,51.2,48.1,30.00,ENE,76,0.0,0.0,89,0.00,CLR,,0.00,WeatherDisplay:10.37,2013-09-25 00:38:00,
2013-09-24 20:43:00,50.9,48.1,30.00,ENE,77,0.0,0.0,90,0.00,CLR,,0.00,WeatherDisplay:10.37,2013-09-25 00:43:00,
2013-09-24 20:48:00,50.5,47.7,30.00,ENE,77,0.0,0.0,90,0.00,CLR,,0.00,WeatherDisplay:10.37,2013-09-25 00:48:00,
2013-09-24 20:53:00,50.3,47.8,29.99,ENE,77,0.0,0.0,91,0.00,CLR,,0.00,WeatherDisplay:10.37,2013-09-25 00:53:00,
2013-09-24 20:58:00,50.1,47.6,29.99,ENE,77,0.0,0.0,91,0.00,CLR,,0.00,WeatherDisplay:10.37,2013-09-25 00:58:00,
2013-09-24 21:03:00,49.9,47.4,29.99,ENE,77,0.0,0.0,91,0.00,CLR,,0.00,WeatherDisplay:10.37,2013-09-25 01:03:00,
2013-09-24 21:08:00,49.6,47.4,29.99,ENE,76,0.0,0.0,92,0.00,CLR,,0.00,WeatherDisplay:10.37,2013-09-25 01:08:00,
2013-09-24 21:13:00,49.4,47.2,29.99,ENE,76,0.0,0.0,92,0.00,CLR,,0.00,WeatherDisplay:10.37,2013-09-25 01:13:00,
2013-09-24 21:18:00,49.2,47.0,29.99,ENE,77,0.0,0.0,92,0.00,CLR,,0.00,WeatherDisplay:10.37,2013-09-25 01:18:00,
2013-09-24 21:23:00,49.1,46.9,29.99,ENE,77,0.0,0.0,92,0.00,CLR,,0.00,WeatherDisplay:10.37,2013-09-25 01:23:00,
2013-09-24 21:28:00,48.9,47.0,29.99,ENE,77,0.0,0.0,93,0.00,CLR,,0.00,WeatherDisplay:10.37,2013-09-25 01:28:00,
2013-09-24 21:33:00,48.8,46.9,29.99,ENE,77,0.0,0.0,93,0.00,CLR,,0.00,WeatherDisplay:10.37,2013-09-25 01:33:00,
2013-09-24 21:38:00,48.6,46.7,29.99,ENE,77,0.0,0.0,93,0.00,CLR,,0.00,WeatherDisplay:10.37,2013-09-25 01:38:00,
2013-09-24 21:43:00,48.5,46.6,29.99,ENE,77,0.0,0.0,93,0.00,CLR,,0.00,WeatherDisplay:10.37,2013-09-25 01:43:00,
2013-09-24 21:48:00,48.3,46.4,29.99,ENE,77,0.0,0.0,93,0.00,CLR,,0.00,WeatherDisplay:10.37,2013-09-25 01:48:00,
2013-09-24 21:53:00,48.1,46.2,29.99,ENE,77,0.0,0.0,93,0.00,CLR,,0.00,WeatherDisplay:10.37,2013-09-25 01:53:00,
2013-09-24 21:58:00,47.9,46.3,29.99,ENE,77,0.0,0.0,94,0.00,CLR,,0.00,WeatherDisplay:10.37,2013-09-25 01:58:00,
2013-09-24 22:03:00,47.8,46.2,29.99,ENE,76,0.0,0.0,94,0.00,CLR,,0.00,WeatherDisplay:10.37,2013-09-25 02:03:00,
2013-09-24 22:08:00,47.6,46.0,29.99,ENE,77,0.0,0.0,94,0.00,CLR,,0.00,WeatherDisplay:10.37,2013-09-25 02:08:00,
2013-09-24 22:13:00,47.4,45.8,29.99,ENE,77,0.0,0.0,94,0.00,CLR,,0.00,WeatherDisplay:10.37,2013-09-25 02:13:00,
2013-09-24 22:18:00,47.3,45.7,30.00,ENE,77,0.0,0.0,94,0.00,CLR,,0.00,WeatherDisplay:10.37,2013-09-25 02:18:00,
2013-09-24 22:23:00,47.2,45.6,30.00,ENE,76,0.0,0.0,94,0.00,CLR,,0.00,WeatherDisplay:10.37,2013-09-25 02:23:00,
2013-09-24 22:28:00,46.9,45.3,30.00,ENE,77,0.0,0.0,94,0.00,CLR,,0.00,WeatherDisplay:10.37,2013-09-25 02:28:00,
2013-09-24 22:33:00,46.7,45.1,30.00,ENE,77,0.0,0.0,94,0.00,CLR,,0.00,WeatherDisplay:10.37,2013-09-25 02:33:00,
2013-09-24 22:38:00,46.4,44.8,30.00,ENE,78,0.0,0.0,94,0.00,CLR,,0.00,WeatherDisplay:10.37,2013-09-25 02:38:00,
2013-09-24 22:43:00,46.3,44.7,30.00,ENE,76,0.0,0.0,94,0.00,CLR,,0.00,WeatherDisplay:10.37,2013-09-25 02:43:00,
2013-09-24 22:48:00,46.2,44.8,30.00,ENE,76,0.0,0.0,95,0.00,CLR,,0.00,WeatherDisplay:10.37,2013-09-25 02:48:00,
2013-09-24 22:53:00,46.0,44.4,30.00,ENE,77,0.0,0.0,94,0.00,CLR,,0.00,WeatherDisplay:10.37,2013-09-25 02:53:00,
2013-09-24 22:58:00,45.8,44.2,30.00,ENE,76,0.0,0.0,94,0.00,CLR,,0.00,WeatherDisplay:10.37,2013-09-25 02:58:00,
2013-09-24 23:03:00,45.7,44.4,30.00,ENE,76,0.0,0.0,95,0.00,CLR,,0.00,WeatherDisplay:10.37,2013-09-25 03:03:00,
2013-09-24 23:08:00,45.6,44.3,29.99,ENE,77,0.0,0.0,95,0.00,CLR,,0.00,WeatherDisplay:10.37,2013-09-25 03:08:00,
2013-09-24 23:13:00,45.6,44.3,30.00,ENE,77,0.0,0.0,95,0.00,CLR,,0.00,WeatherDisplay:10.37,2013-09-25 03:13:00,
2013-09-24 23:18:00,45.5,44.2,29.99,ENE,76,0.0,0.0,95,0.00,CLR,,0.00,WeatherDisplay:10.37,2013-09-25 03:18:00,
2013-09-24 23:23:00,45.5,44.2,29.99,ENE,76,0.0,0.0,95,0.00,CLR,,0.00,WeatherDisplay:10.37,2013-09-25 03:23:00,
2013-09-24 23:28:00,45.4,44.1,30.00,ENE,77,0.0,0.0,95,0.00,CLR,,0.00,WeatherDisplay:10.37,2013-09-25 03:28:00,
2013-09-24 23:33:00,45.4,44.1,29.99,ENE,77,0.0,0.0,95,0.00,CLR,,0.00,WeatherDisplay:10.37,2013-09-25 03:33:00,
2013-09-24 23:38:00,45.4,44.1,29.99,ENE,78,0.0,0.0,95,0.00,CLR,,0.00,WeatherDisplay:10.37,2013-09-25 03:38:00,
2013-09-24 23:43:00,45.2,43.9,29.99,ENE,77,0.0,0.0,95,0.00,CLR,,0.00,WeatherDisplay:10.37,2013-09-25 03:43:00,
2013-09-24 23:48:00,45.1,43.8,29.99,ENE,76,0.0,0.0,95,0.00,CLR,,0.00,WeatherDisplay:10.37,2013-09-25 03:48:00,
2013-09-24 23:53:00,45.1,43.8,29.99,ENE,76,0.0,0.0,95,0.00,CLR,,0.00,WeatherDisplay:10.37,2013-09-25 03:53:00,
2013-09-24 23:58:00,45.0,43.9,29.99,ENE,76,0.0,0.0,96,0.00,CLR,,0.00,WeatherDisplay:10.37,2013-09-25 03:58:00,